createdAt,value
2018-10-12T00:00:58.860Z,99615.00
2018-10-12T00:03:27.054Z,99621.00
2018-10-12T00:05:55.339Z,99626.00
2018-10-12T00:08:23.427Z,99633.00
2018-10-12T00:10:52.171Z,99639.00
2018-10-12T00:13:20.273Z,99644.00
2018-10-12T00:15:48.393Z,99644.00
2018-10-12T00:18:16.560Z,99648.00
2018-10-12T00:20:44.782Z,99651.00
2018-10-12T00:23:12.889Z,99658.00
2018-10-12T00:25:41.141Z,99662.00
2018-10-12T00:28:09.472Z,99661.00
2018-10-12T00:30:37.617Z,99660.00
2018-10-12T00:33:05.940Z,99662.00
2018-10-12T00:35:34.035Z,99660.00
2018-10-12T00:38:02.996Z,99658.00
2018-10-12T00:40:30.989Z,99659.00
2018-10-12T00:42:59.169Z,99664.00
2018-10-12T00:45:27.338Z,99668.00
2018-10-12T00:47:58.369Z,99663.00
2018-10-12T00:50:27.038Z,99660.00
2018-10-12T00:52:55.217Z,99659.00
2018-10-12T00:55:25.232Z,99667.00
2018-10-12T00:57:53.376Z,99663.00
2018-10-12T01:00:21.995Z,99664.00
2018-10-12T01:02:50.149Z,99664.00
2018-10-12T01:05:18.424Z,99663.00
2018-10-12T01:07:46.489Z,99669.00
2018-10-12T01:10:14.642Z,99667.00
2018-10-12T01:12:44.342Z,99671.00
2018-10-12T01:15:12.548Z,99677.00
2018-10-12T01:17:40.737Z,99678.00
2018-10-12T01:20:09.368Z,99682.00
2018-10-12T01:22:38.678Z,99690.00
2018-10-12T01:25:07.668Z,99682.00
2018-10-12T01:27:35.823Z,99688.00
2018-10-12T01:30:04.972Z,99689.00
2018-10-12T01:32:38.541Z,99691.00
2018-10-12T01:35:06.748Z,99688.00
2018-10-12T01:37:34.907Z,99684.00
2018-10-12T01:40:03.057Z,99682.00
2018-10-12T01:42:31.116Z,99694.00
2018-10-12T01:44:59.357Z,99690.00
2018-10-12T01:47:27.948Z,99698.00
2018-10-12T01:49:56.075Z,99708.00
2018-10-12T01:52:24.372Z,99702.00
2018-10-12T01:54:52.620Z,99712.00
2018-10-12T01:57:20.684Z,99714.00
2018-10-12T01:59:48.869Z,99713.00
2018-10-12T02:02:17.184Z,99718.00
2018-10-12T02:04:45.757Z,99725.00
2018-10-12T02:07:13.896Z,99721.00
2018-10-12T02:09:42.098Z,99722.00
2018-10-12T02:12:10.483Z,99723.00
2018-10-12T02:14:38.721Z,99722.00
2018-10-12T02:17:07.075Z,99722.00
2018-10-12T02:19:35.285Z,99726.00
2018-10-12T02:22:03.753Z,99733.00
2018-10-12T02:24:31.855Z,99731.00
2018-10-12T02:26:59.939Z,99734.00
2018-10-12T02:29:28.409Z,99739.00
2018-10-12T02:31:56.466Z,99753.00
2018-10-12T02:34:24.755Z,99756.00
2018-10-12T02:36:53.011Z,99756.00
2018-10-12T02:39:21.145Z,99765.00
2018-10-12T02:41:49.455Z,99774.00
2018-10-12T02:44:17.599Z,99771.00
2018-10-12T02:46:45.804Z,99772.00
2018-10-12T02:49:13.918Z,99773.00
2018-10-12T02:51:42.133Z,99776.00
2018-10-12T02:54:10.224Z,99770.00
2018-10-12T02:56:38.507Z,99775.00
2018-10-12T02:59:06.859Z,99784.00
2018-10-12T03:01:34.987Z,99783.00
2018-10-12T03:04:03.148Z,99779.00
2018-10-12T03:06:31.237Z,99782.00
2018-10-12T03:08:59.362Z,99794.00
2018-10-12T03:11:27.499Z,99797.00
2018-10-12T03:13:55.644Z,99803.00
2018-10-12T03:16:24.585Z,99802.00
2018-10-12T03:18:52.822Z,99814.00
2018-10-12T03:21:20.941Z,99816.00
2018-10-12T03:23:50.022Z,99824.00
2018-10-12T03:26:18.351Z,99826.00
2018-10-12T03:28:46.507Z,99822.00
2018-10-12T03:31:14.715Z,99822.00
2018-10-12T03:33:42.958Z,99823.00
2018-10-12T03:36:11.167Z,99824.00
2018-10-12T03:38:39.305Z,99820.00
2018-10-12T03:41:07.718Z,99823.00
2018-10-12T03:43:37.013Z,99837.00
2018-10-12T03:46:05.185Z,99836.00
2018-10-12T03:48:33.361Z,99835.00
2018-10-12T03:51:01.447Z,99830.00
2018-10-12T03:53:29.770Z,99838.00
2018-10-12T03:55:57.981Z,99842.00
2018-10-12T03:58:26.351Z,99844.00
2018-10-12T04:00:54.564Z,99846.00
2018-10-12T04:03:22.879Z,99868.00
2018-10-12T04:05:51.041Z,99867.00
2018-10-12T04:08:19.104Z,99874.00
2018-10-12T04:10:47.376Z,99872.00
2018-10-12T04:13:15.655Z,99871.00
2018-10-12T04:15:43.834Z,99869.00
2018-10-12T04:18:11.898Z,99874.00
2018-10-12T04:20:39.961Z,99866.00
2018-10-12T04:23:08.066Z,99865.00
2018-10-12T04:25:36.265Z,99860.00
2018-10-12T04:28:04.445Z,99867.00
2018-10-12T04:30:32.565Z,99881.00
2018-10-12T04:33:01.118Z,99895.00
2018-10-12T04:35:29.279Z,99890.00
2018-10-12T04:37:57.655Z,99887.00
2018-10-12T04:41:12.176Z,99896.00
2018-10-12T04:43:40.385Z,99915.00
2018-10-12T04:46:11.326Z,99922.00
2018-10-12T04:48:40.418Z,99922.00
2018-10-12T04:51:13.105Z,99922.00
2018-10-12T04:53:41.268Z,99927.00
2018-10-12T04:56:10.088Z,99925.00
2018-10-12T04:58:38.991Z,99942.00
2018-10-12T05:01:07.227Z,99933.00
2018-10-12T05:03:35.270Z,99928.00
2018-10-12T05:06:04.369Z,99934.00
2018-10-12T05:08:33.053Z,99920.00
2018-10-12T05:11:01.287Z,99946.00
2018-10-12T05:13:31.450Z,99945.00
2018-10-12T05:15:59.817Z,99946.00
2018-10-12T05:18:28.092Z,99950.00
2018-10-12T05:20:56.345Z,99961.00
2018-10-12T05:23:24.553Z,99958.00
2018-10-12T05:25:53.054Z,99950.00
2018-10-12T05:28:21.250Z,99953.00
2018-10-12T05:30:49.313Z,99957.00
2018-10-12T05:33:17.853Z,99963.00
2018-10-12T05:35:46.169Z,99962.00
2018-10-12T05:38:14.550Z,99968.00
2018-10-12T05:40:42.685Z,99970.00
2018-10-12T05:43:12.973Z,99974.00
2018-10-12T05:45:41.040Z,99974.00
2018-10-12T05:48:26.246Z,99986.00
2018-10-12T05:50:54.598Z,99991.00
2018-10-12T05:53:23.170Z,99995.00
2018-10-12T05:55:51.565Z,99993.00
2018-10-12T05:58:20.165Z,99992.00
2018-10-12T06:00:49.889Z,100004.00
2018-10-12T06:03:18.170Z,100010.00
2018-10-12T06:05:46.281Z,100007.00
2018-10-12T06:08:14.461Z,100019.00
2018-10-12T06:10:42.525Z,100019.00
2018-10-12T06:13:10.791Z,100017.00
2018-10-12T06:15:39.038Z,100017.00
2018-10-12T06:18:09.145Z,100020.00
2018-10-12T06:20:37.402Z,100025.00
2018-10-12T06:23:05.630Z,100035.00
2018-10-12T06:25:33.851Z,100039.00
2018-10-12T06:28:07.084Z,100046.00
2018-10-12T06:30:35.307Z,100054.00
2018-10-12T06:33:03.591Z,100053.00
2018-10-12T06:35:31.714Z,100063.00
2018-10-12T06:37:59.936Z,100065.00
2018-10-12T06:40:28.423Z,100071.00
2018-10-12T06:42:56.740Z,100070.00
2018-10-12T06:45:24.845Z,100070.00
2018-10-12T06:47:52.983Z,100078.00
2018-10-12T06:50:20.999Z,100072.00
2018-10-12T06:52:49.152Z,100071.00
2018-10-12T06:55:17.264Z,100071.00
2018-10-12T06:57:45.547Z,100079.00
2018-10-12T07:00:13.655Z,100080.00
2018-10-12T07:02:41.778Z,100084.00
2018-10-12T07:05:10.688Z,100081.00
2018-10-12T07:07:38.909Z,100107.00
2018-10-12T07:10:07.102Z,100112.00
2018-10-12T07:12:35.193Z,100107.00
2018-10-12T07:15:03.491Z,100105.00
2018-10-12T07:17:31.553Z,100109.00
2018-10-12T07:19:59.788Z,100111.00
2018-10-12T07:22:28.063Z,100104.00
2018-10-12T07:24:56.312Z,100116.00
2018-10-12T07:27:24.651Z,100116.00
2018-10-12T07:29:52.937Z,100108.00
2018-10-12T07:32:21.084Z,100108.00
2018-10-12T07:34:49.329Z,100117.00
2018-10-12T07:37:17.645Z,100125.00
2018-10-12T07:39:45.944Z,100117.00
2018-10-12T07:42:14.086Z,100107.00
2018-10-12T07:44:42.347Z,100111.00
2018-10-12T07:47:10.461Z,100112.00
2018-10-12T07:49:38.563Z,100109.00
2018-10-12T07:52:06.919Z,100109.00
2018-10-12T07:54:35.119Z,100112.00
2018-10-12T07:57:09.055Z,100108.00
2018-10-12T07:59:37.237Z,100104.00
2018-10-12T08:02:05.834Z,100110.00
2018-10-12T08:04:33.903Z,100108.00
2018-10-12T08:07:01.960Z,100102.00
2018-10-12T08:09:30.245Z,100103.00
2018-10-12T08:11:58.361Z,100080.00
2018-10-12T08:14:26.498Z,100105.00
2018-10-12T08:16:54.688Z,100112.00
2018-10-12T08:19:22.904Z,100118.00
2018-10-12T08:21:51.143Z,100121.00
2018-10-12T08:24:19.262Z,100121.00
2018-10-12T08:26:47.534Z,100117.00
2018-10-12T08:29:16.083Z,100090.00
2018-10-12T08:31:44.316Z,100097.00
2018-10-12T08:34:13.359Z,100110.00
2018-10-12T08:36:41.501Z,100113.00
2018-10-12T08:39:11.703Z,100115.00
2018-10-12T08:41:39.915Z,100133.00
2018-10-12T08:44:08.789Z,100124.00
2018-10-12T08:46:37.059Z,100125.00
2018-10-12T08:49:05.278Z,100134.00
2018-10-12T08:51:34.033Z,100133.00
2018-10-12T08:54:02.255Z,100140.00
2018-10-12T08:56:30.394Z,100140.00
2018-10-12T08:58:58.607Z,100144.00
2018-10-12T09:01:26.725Z,100142.00
2018-10-12T09:03:54.898Z,100141.00
2018-10-12T09:06:22.970Z,100137.00
2018-10-12T09:08:51.045Z,100142.00
2018-10-12T09:11:19.145Z,100132.00
2018-10-12T09:13:47.444Z,100126.00
2018-10-12T09:16:16.006Z,100128.00
2018-10-12T09:18:44.099Z,100129.00
2018-10-12T09:21:12.439Z,100122.00
2018-10-12T09:23:40.537Z,100119.00
2018-10-12T09:26:08.829Z,100119.00
2018-10-12T09:28:37.236Z,100116.00
2018-10-12T09:31:05.802Z,100110.00
2018-10-12T09:33:34.026Z,100121.00
2018-10-12T09:36:02.321Z,100115.00
2018-10-12T09:38:30.577Z,100119.00
2018-10-12T09:40:58.754Z,100115.00
2018-10-12T09:43:27.037Z,100117.00
2018-10-12T09:45:55.293Z,100117.00
2018-10-12T09:48:23.392Z,100120.00
2018-10-12T09:50:51.696Z,100117.00
2018-10-12T09:53:20.008Z,100125.00
2018-10-12T09:55:48.277Z,100118.00
2018-10-12T09:58:16.740Z,100114.00
2018-10-12T10:00:50.653Z,100109.00
2018-10-12T10:03:24.382Z,100111.00
2018-10-12T10:05:52.504Z,100109.00
2018-10-12T10:08:20.877Z,100111.00
2018-10-12T10:10:49.091Z,100113.00
2018-10-12T10:13:17.184Z,100114.00
2018-10-12T10:15:45.405Z,100110.00
2018-10-12T10:18:13.488Z,100107.00
2018-10-12T10:20:41.607Z,100104.00
2018-10-12T10:23:09.747Z,100100.00
2018-10-12T10:25:38.421Z,100102.00
2018-10-12T10:28:06.638Z,100099.00
2018-10-12T10:30:34.671Z,100098.00
2018-10-12T10:33:02.782Z,100096.00
2018-10-12T10:35:30.834Z,100099.00
2018-10-12T10:37:58.880Z,100106.00
2018-10-12T10:40:27.080Z,100097.00
2018-10-12T10:42:55.287Z,100098.00
2018-10-12T10:45:23.824Z,100098.00
2018-10-12T10:47:52.140Z,100099.00
2018-10-12T10:50:21.003Z,100096.00
2018-10-12T10:52:49.078Z,100084.00
2018-10-12T10:55:17.355Z,100084.00
2018-10-12T10:57:45.551Z,100078.00
2018-10-12T11:00:13.716Z,100077.00
2018-10-12T11:02:41.887Z,100066.00
2018-10-12T11:05:10.083Z,100060.00
2018-10-12T11:07:38.297Z,100055.00
2018-10-12T11:10:06.489Z,100057.00
2018-10-12T11:12:34.856Z,100050.00
2018-10-12T11:15:03.097Z,100045.00
2018-10-12T11:17:31.297Z,100044.00
2018-10-12T11:19:59.421Z,100048.00
2018-10-12T11:22:27.653Z,100055.00
2018-10-12T11:24:55.896Z,100057.00
2018-10-12T11:27:24.138Z,100056.00
2018-10-12T11:29:52.502Z,100048.00
2018-10-12T11:32:20.727Z,100039.00
2018-10-12T11:34:48.899Z,100043.00
2018-10-12T11:37:17.287Z,100042.00
2018-10-12T11:39:45.434Z,100035.00
2018-10-12T11:42:13.554Z,100037.00
2018-10-12T11:44:41.820Z,100031.00
2018-10-12T11:47:10.018Z,100025.00
2018-10-12T11:49:38.283Z,100024.00
2018-10-12T11:52:06.488Z,100023.00
2018-10-12T11:54:35.503Z,100024.00
2018-10-12T11:57:03.675Z,100025.00
2018-10-12T11:59:31.841Z,100023.00
2018-10-12T12:02:00.134Z,100021.00
2018-10-12T12:04:28.312Z,100018.00
2018-10-12T12:06:56.462Z,100014.00
2018-10-12T12:09:24.770Z,100008.00
2018-10-12T12:11:53.014Z,100011.00
2018-10-12T12:14:21.226Z,100007.00
2018-10-12T12:16:49.367Z,100003.00
2018-10-12T12:19:17.557Z,100004.00
2018-10-12T12:21:45.812Z,100002.00
2018-10-12T12:24:13.998Z,99999.00
2018-10-12T12:26:42.141Z,99994.00
2018-10-12T12:29:10.304Z,99996.00
2018-10-12T12:31:38.441Z,99996.00
2018-10-12T12:34:06.757Z,100002.00
2018-10-12T12:36:34.899Z,99999.00
2018-10-12T12:39:04.483Z,99998.00
2018-10-12T12:41:32.853Z,99997.00
2018-10-12T12:44:00.928Z,99996.00
2018-10-12T12:46:29.165Z,99996.00
2018-10-12T12:48:57.670Z,99993.00
2018-10-12T12:51:25.555Z,99993.00
2018-10-12T12:53:53.728Z,99995.00
2018-10-12T12:56:21.805Z,99993.00
2018-10-12T12:58:50.120Z,99995.00
2018-10-12T13:01:18.220Z,99988.00
2018-10-12T13:03:46.372Z,99990.00
2018-10-12T13:06:14.862Z,99988.00
2018-10-12T13:08:43.067Z,99987.00
2018-10-12T13:11:11.223Z,99985.00
2018-10-12T13:13:39.334Z,99983.00
2018-10-12T13:16:07.773Z,99987.00
2018-10-12T13:18:36.028Z,99990.00
2018-10-12T13:21:04.295Z,99989.00
2018-10-12T13:23:32.461Z,99987.00
2018-10-12T13:26:01.343Z,99986.00
2018-10-12T13:28:29.433Z,99989.00
2018-10-12T13:30:57.560Z,99983.00
2018-10-12T13:33:25.741Z,99987.00
2018-10-12T13:35:53.953Z,99986.00
2018-10-12T13:38:22.106Z,99984.00
2018-10-12T13:40:50.117Z,99983.00
2018-10-12T13:43:18.263Z,99986.00
2018-10-12T13:45:46.391Z,99985.00
2018-10-12T13:48:14.524Z,99984.00
2018-10-12T13:50:42.638Z,99985.00
2018-10-12T13:53:10.880Z,99987.00
2018-10-12T13:55:39.299Z,99986.00
2018-10-12T13:58:07.518Z,99981.00
2018-10-12T14:00:35.742Z,99983.00
2018-10-12T14:03:03.991Z,99980.00
2018-10-12T14:05:32.364Z,99983.00
2018-10-12T14:08:00.563Z,99980.00
2018-10-12T14:10:31.185Z,99979.00
2018-10-12T14:12:59.400Z,99982.00
2018-10-12T14:15:27.583Z,99980.00
2018-10-12T14:17:56.729Z,99979.00
2018-10-12T14:20:24.826Z,99987.00
2018-10-12T14:22:52.932Z,99985.00
2018-10-12T14:25:21.251Z,99984.00
2018-10-12T14:27:49.426Z,99982.00
2018-10-12T14:30:17.731Z,99983.00
2018-10-12T14:32:45.950Z,99983.00
2018-10-12T14:35:14.315Z,99980.00
2018-10-12T14:37:42.535Z,99973.00
2018-10-12T14:40:10.733Z,99977.00
2018-10-12T14:42:38.915Z,99977.00
2018-10-12T14:45:07.255Z,99981.00
2018-10-12T14:47:35.704Z,99982.00
2018-10-12T14:50:04.230Z,99979.00
2018-10-12T14:52:32.479Z,99981.00
2018-10-12T14:55:01.783Z,99981.00
2018-10-12T14:57:30.050Z,99985.00
2018-10-12T14:59:58.236Z,99986.00
2018-10-12T15:02:26.501Z,99991.00
2018-10-12T15:04:54.655Z,99986.00
2018-10-12T15:07:22.855Z,99989.00
2018-10-12T15:09:51.137Z,99986.00
2018-10-12T15:12:19.280Z,99988.00
2018-10-12T15:15:04.611Z,99993.00
2018-10-12T15:17:32.768Z,99997.00
2018-10-12T15:20:00.844Z,99994.00
2018-10-12T15:22:28.950Z,100006.00
2018-10-12T15:24:57.033Z,100004.00
2018-10-12T15:27:25.137Z,100008.00
2018-10-12T15:29:53.329Z,100002.00
2018-10-12T15:32:21.429Z,100008.00
2018-10-12T15:34:49.419Z,100002.00
2018-10-12T15:37:18.476Z,100003.00
2018-10-12T15:39:46.642Z,100006.00
2018-10-12T15:42:14.833Z,100006.00
2018-10-12T15:44:42.978Z,100008.00
2018-10-12T15:47:11.081Z,100010.00
2018-10-12T15:49:39.148Z,100014.00
2018-10-12T15:52:07.268Z,100017.00
2018-10-12T15:54:35.600Z,100014.00
2018-10-12T15:57:03.812Z,100011.00
2018-10-12T15:59:32.008Z,100010.00
2018-10-12T16:02:00.308Z,100016.00
2018-10-12T16:04:28.429Z,100019.00
2018-10-12T16:06:56.912Z,100023.00
2018-10-12T16:09:25.102Z,100021.00
2018-10-12T16:11:53.452Z,100021.00
2018-10-12T16:14:21.638Z,100030.00
2018-10-12T16:16:49.812Z,100031.00
2018-10-12T16:19:17.961Z,100030.00
2018-10-12T16:21:46.120Z,100034.00
2018-10-12T16:24:14.407Z,100042.00
2018-10-12T16:26:43.275Z,100040.00
2018-10-12T16:29:11.636Z,100043.00
2018-10-12T16:31:39.724Z,100041.00
2018-10-12T16:34:07.820Z,100044.00
2018-10-12T16:36:36.583Z,100043.00
2018-10-12T16:39:07.302Z,100052.00
2018-10-12T16:41:36.151Z,100047.00
2018-10-12T16:44:05.272Z,100053.00
2018-10-12T16:46:33.400Z,100060.00
2018-10-12T16:49:01.589Z,100058.00
2018-10-12T16:51:29.885Z,100066.00
2018-10-12T16:53:58.131Z,100069.00
2018-10-12T16:56:26.697Z,100073.00
2018-10-12T16:58:54.754Z,100079.00
2018-10-12T17:01:22.881Z,100078.00
2018-10-12T17:03:51.263Z,100080.00
2018-10-12T17:06:19.633Z,100077.00
2018-10-12T17:08:47.751Z,100091.00
2018-10-12T17:11:15.952Z,100094.00
2018-10-12T17:13:44.248Z,100095.00
2018-10-12T17:16:12.448Z,100101.00
2018-10-12T17:18:40.537Z,100101.00
2018-10-12T17:21:08.637Z,100102.00
2018-10-12T17:23:36.880Z,100104.00
2018-10-12T17:26:05.209Z,100111.00
2018-10-12T17:28:33.361Z,100110.00
2018-10-12T17:31:01.507Z,100112.00
2018-10-12T17:33:29.710Z,100114.00
2018-10-12T17:35:58.050Z,100116.00
2018-10-12T17:38:26.282Z,100116.00
2018-10-12T17:40:54.487Z,100124.00
2018-10-12T17:43:22.671Z,100127.00
2018-10-12T17:45:50.787Z,100125.00
2018-10-12T17:48:19.849Z,100131.00
2018-10-12T17:50:48.168Z,100130.00
2018-10-12T17:53:16.298Z,100137.00
2018-10-12T17:55:44.969Z,100139.00
2018-10-12T17:58:13.070Z,100139.00
2018-10-12T18:00:41.329Z,100136.00
2018-10-12T18:03:09.522Z,100136.00
2018-10-12T18:05:38.049Z,100136.00
2018-10-12T18:08:06.252Z,100133.00
2018-10-12T18:10:34.466Z,100134.00
2018-10-12T18:13:04.723Z,100138.00
2018-10-12T18:15:34.611Z,100137.00
2018-10-12T18:18:11.139Z,100138.00
2018-10-12T18:20:39.302Z,100143.00
2018-10-12T18:23:08.406Z,100151.00
2018-10-12T18:25:36.967Z,100148.00
2018-10-12T18:28:05.198Z,100148.00
2018-10-12T18:30:33.487Z,100153.00
2018-10-12T18:33:01.716Z,100149.00
2018-10-12T18:35:30.867Z,100155.00
2018-10-12T18:37:59.102Z,100159.00
2018-10-12T18:40:27.288Z,100162.00
2018-10-12T18:42:55.483Z,100172.00
2018-10-12T18:45:23.739Z,100177.00
2018-10-12T18:47:51.968Z,100174.00
2018-10-12T18:50:20.054Z,100177.00
2018-10-12T18:52:48.160Z,100182.00
2018-10-12T18:55:16.343Z,100179.00
2018-10-12T18:57:44.456Z,100180.00
2018-10-12T19:00:12.793Z,100185.00
2018-10-12T19:02:40.938Z,100188.00
2018-10-12T19:05:09.388Z,100187.00
2018-10-12T19:07:37.471Z,100185.00
2018-10-12T19:10:06.120Z,100188.00
2018-10-12T19:12:34.404Z,100188.00
2018-10-12T19:15:02.530Z,100194.00
2018-10-12T19:17:30.675Z,100191.00
2018-10-12T19:19:58.807Z,100197.00
2018-10-12T19:22:27.048Z,100201.00
2018-10-12T19:24:55.280Z,100197.00
2018-10-12T19:27:23.588Z,100197.00
2018-10-12T19:29:52.363Z,100201.00
2018-10-12T19:32:20.528Z,100200.00
2018-10-12T19:34:48.581Z,100206.00
2018-10-12T19:37:16.755Z,100208.00
2018-10-12T19:39:44.988Z,100206.00
2018-10-12T19:42:13.910Z,100212.00
2018-10-12T19:44:41.963Z,100212.00
2018-10-12T19:47:15.486Z,100214.00
2018-10-12T19:49:43.703Z,100217.00
2018-10-12T19:52:11.933Z,100222.00
2018-10-12T19:54:40.242Z,100228.00
2018-10-12T19:57:08.464Z,100229.00
2018-10-12T19:59:36.707Z,100236.00
2018-10-12T20:02:04.981Z,100237.00
2018-10-12T20:04:33.275Z,100237.00
2018-10-12T20:07:01.427Z,100235.00
2018-10-12T20:09:29.647Z,100239.00
2018-10-12T20:11:57.766Z,100234.00
2018-10-12T20:14:26.044Z,100237.00
2018-10-12T20:16:54.207Z,100238.00
2018-10-12T20:19:22.531Z,100237.00
2018-10-12T20:21:50.684Z,100245.00
2018-10-12T20:24:18.774Z,100246.00
2018-10-12T20:26:46.912Z,100247.00
2018-10-12T20:29:15.676Z,100245.00
2018-10-12T20:31:43.785Z,100249.00
2018-10-12T20:34:11.961Z,100248.00
2018-10-12T20:36:40.238Z,100244.00
2018-10-12T20:39:09.901Z,100244.00
2018-10-12T20:41:38.001Z,100249.00
2018-10-12T20:44:06.334Z,100251.00
2018-10-12T20:46:34.533Z,100245.00
2018-10-12T20:49:02.765Z,100247.00
2018-10-12T20:51:30.819Z,100249.00
2018-10-12T20:53:58.936Z,100251.00
2018-10-12T20:56:27.140Z,100248.00
2018-10-12T20:58:55.281Z,100250.00
2018-10-12T21:01:23.453Z,100250.00
2018-10-12T21:03:51.819Z,100249.00
2018-10-12T21:06:24.827Z,100253.00
2018-10-12T21:08:52.941Z,100258.00
2018-10-12T21:11:21.016Z,100256.00
2018-10-12T21:13:49.324Z,100255.00
2018-10-12T21:16:17.785Z,100255.00
2018-10-12T21:18:45.913Z,100260.00
2018-10-12T21:21:14.148Z,100260.00
2018-10-12T21:23:42.330Z,100258.00
2018-10-12T21:26:10.461Z,100260.00
2018-10-12T21:28:38.617Z,100263.00
2018-10-12T21:31:07.163Z,100264.00
2018-10-12T21:33:35.365Z,100262.00
2018-10-12T21:36:03.625Z,100266.00
2018-10-12T21:38:31.818Z,100265.00
2018-10-12T21:41:00.065Z,100262.00
2018-10-12T21:43:28.715Z,100256.00
2018-10-12T21:45:56.934Z,100258.00
2018-10-12T21:48:25.105Z,100267.00
2018-10-12T21:50:53.265Z,100267.00
2018-10-12T21:53:22.174Z,100263.00
2018-10-12T21:55:50.311Z,100264.00
2018-10-12T21:58:18.746Z,100260.00
2018-10-12T22:00:52.698Z,100259.00
2018-10-12T22:03:20.891Z,100259.00
2018-10-12T22:05:49.124Z,100259.00
2018-10-12T22:08:22.952Z,100263.00
2018-10-12T22:10:51.217Z,100262.00
2018-10-12T22:13:19.336Z,100263.00
2018-10-12T22:15:47.549Z,100265.00
2018-10-12T22:18:19.983Z,100262.00
2018-10-12T22:20:57.234Z,100266.00
2018-10-12T22:23:36.094Z,100265.00
2018-10-12T22:26:08.493Z,100266.00
2018-10-12T22:28:41.987Z,100268.00
2018-10-12T22:31:24.417Z,100263.00
2018-10-12T22:33:52.716Z,100261.00
2018-10-12T22:36:20.943Z,100264.00
2018-10-12T22:38:49.303Z,100261.00
2018-10-12T22:41:17.481Z,100262.00
2018-10-12T22:43:45.566Z,100258.00
2018-10-12T22:46:13.954Z,100262.00
2018-10-12T22:48:42.083Z,100263.00
2018-10-12T22:51:11.279Z,100261.00
2018-10-12T22:53:39.418Z,100259.00
2018-10-12T22:56:07.605Z,100255.00
2018-10-12T22:58:35.764Z,100250.00
2018-10-12T23:01:03.988Z,100251.00
2018-10-12T23:03:32.227Z,100246.00
2018-10-12T23:06:00.446Z,100248.00
2018-10-12T23:08:28.537Z,100240.00
2018-10-12T23:10:56.729Z,100236.00
2018-10-12T23:13:24.978Z,100240.00
2018-10-12T23:15:53.230Z,100236.00
2018-10-12T23:18:21.529Z,100239.00
2018-10-12T23:20:50.340Z,100237.00
2018-10-12T23:23:18.865Z,100237.00
2018-10-12T23:25:46.866Z,100238.00
2018-10-12T23:28:15.024Z,100237.00
2018-10-12T23:30:43.339Z,100240.00
2018-10-12T23:33:28.468Z,100244.00
2018-10-12T23:35:56.567Z,100238.00
2018-10-12T23:38:24.666Z,100244.00
2018-10-12T23:40:52.883Z,100245.00
2018-10-12T23:43:21.038Z,100240.00
2018-10-12T23:45:49.250Z,100243.00
2018-10-12T23:48:17.438Z,100245.00
2018-10-12T23:50:45.487Z,100249.00
2018-10-12T23:53:13.640Z,100245.00
2018-10-12T23:55:41.767Z,100250.00
2018-10-12T23:58:09.965Z,100255.00
